sensor_id;sensor_type;location;lat;lon;timestamp;temperature;humidity
24226;DHT22;51462;51.422;5.514;2023-11-19T00:01:33;12.70;99.90
24226;DHT22;51462;51.422;5.514;2023-11-19T00:03:59;12.80;99.90
24226;DHT22;51462;51.422;5.514;2023-11-19T00:06:24;12.80;99.90
24226;DHT22;51462;51.422;5.514;2023-11-19T00:08:51;12.80;99.90
24226;DHT22;51462;51.422;5.514;2023-11-19T00:11:17;12.80;99.90
24226;DHT22;51462;51.422;5.514;2023-11-19T00:13:42;12.80;99.90
24226;DHT22;51462;51.422;5.514;2023-11-19T00:16:08;12.90;99.90
24226;DHT22;51462;51.422;5.514;2023-11-19T00:18:35;12.80;99.90
24226;DHT22;51462;51.422;5.514;2023-11-19T00:21:02;12.80;99.90
24226;DHT22;51462;51.422;5.514;2023-11-19T00:23:28;12.80;99.90
24226;DHT22;51462;51.422;5.514;2023-11-19T00:25:53;13.00;99.90
24226;DHT22;51462;51.422;5.514;2023-11-19T00:28:19;12.80;99.90
24226;DHT22;51462;51.422;5.514;2023-11-19T00:30:44;12.80;99.90
24226;DHT22;51462;51.422;5.514;2023-11-19T00:33:10;13.00;99.90
24226;DHT22;51462;51.422;5.514;2023-11-19T00:35:36;12.90;99.90
24226;DHT22;51462;51.422;5.514;2023-11-19T00:38:01;12.80;99.90
24226;DHT22;51462;51.422;5.514;2023-11-19T00:40:28;12.80;99.90
24226;DHT22;51462;51.422;5.514;2023-11-19T00:42:54;12.80;99.90
24226;DHT22;51462;51.422;5.514;2023-11-19T00:45:19;12.90;99.90
24226;DHT22;51462;51.422;5.514;2023-11-19T00:47:45;12.80;99.90
24226;DHT22;51462;51.422;5.514;2023-11-19T00:50:11;12.80;99.90
24226;DHT22;51462;51.422;5.514;2023-11-19T00:52:37;12.90;99.90
24226;DHT22;51462;51.422;5.514;2023-11-19T00:55:03;13.00;99.90
24226;DHT22;51462;51.422;5.514;2023-11-19T00:57:30;12.90;99.90
24226;DHT22;51462;51.422;5.514;2023-11-19T00:59:57;12.90;99.90
24226;DHT22;51462;51.422;5.514;2023-11-19T01:02:24;13.10;99.90
24226;DHT22;51462;51.422;5.514;2023-11-19T01:04:50;12.90;99.90
24226;DHT22;51462;51.422;5.514;2023-11-19T01:07:15;12.80;99.90
24226;DHT22;51462;51.422;5.514;2023-11-19T01:09:42;12.90;99.90
24226;DHT22;51462;51.422;5.514;2023-11-19T01:12:08;12.80;99.90
24226;DHT22;51462;51.422;5.514;2023-11-19T01:14:34;13.00;99.90
24226;DHT22;51462;51.422;5.514;2023-11-19T01:17:01;13.00;99.90
24226;DHT22;51462;51.422;5.514;2023-11-19T01:19:26;12.90;99.90
24226;DHT22;51462;51.422;5.514;2023-11-19T01:21:53;12.90;99.90
24226;DHT22;51462;51.422;5.514;2023-11-19T01:24:19;12.90;99.90
24226;DHT22;51462;51.422;5.514;2023-11-19T01:26:46;12.80;99.90
24226;DHT22;51462;51.422;5.514;2023-11-19T01:29:13;12.90;99.90
24226;DHT22;51462;51.422;5.514;2023-11-19T01:31:42;13.00;99.90
24226;DHT22;51462;51.422;5.514;2023-11-19T01:34:08;12.80;99.90
24226;DHT22;51462;51.422;5.514;2023-11-19T01:36:34;12.80;99.90
24226;DHT22;51462;51.422;5.514;2023-11-19T01:39:00;12.80;99.90
24226;DHT22;51462;51.422;5.514;2023-11-19T01:41:26;12.70;99.90
24226;DHT22;51462;51.422;5.514;2023-11-19T01:43:52;12.70;99.90
24226;DHT22;51462;51.422;5.514;2023-11-19T01:46:17;12.80;99.90
24226;DHT22;51462;51.422;5.514;2023-11-19T01:48:45;12.90;99.90
24226;DHT22;51462;51.422;5.514;2023-11-19T01:51:15;12.70;99.90
24226;DHT22;51462;51.422;5.514;2023-11-19T01:53:43;12.80;99.90
24226;DHT22;51462;51.422;5.514;2023-11-19T01:56:09;12.80;99.90
24226;DHT22;51462;51.422;5.514;2023-11-19T01:58:36;12.90;99.90
24226;DHT22;51462;51.422;5.514;2023-11-19T02:01:02;12.90;99.90
24226;DHT22;51462;51.422;5.514;2023-11-19T02:03:31;12.90;99.90
24226;DHT22;51462;51.422;5.514;2023-11-19T02:05:58;12.90;99.90
24226;DHT22;51462;51.422;5.514;2023-11-19T02:08:24;12.90;99.90
24226;DHT22;51462;51.422;5.514;2023-11-19T02:10:49;12.90;99.90
24226;DHT22;51462;51.422;5.514;2023-11-19T02:13:15;12.90;99.90
24226;DHT22;51462;51.422;5.514;2023-11-19T02:15:41;12.80;99.90
24226;DHT22;51462;51.422;5.514;2023-11-19T02:18:23;12.80;99.90
24226;DHT22;51462;51.422;5.514;2023-11-19T02:20:50;12.80;99.90
24226;DHT22;51462;51.422;5.514;2023-11-19T02:23:16;12.80;99.90
24226;DHT22;51462;51.422;5.514;2023-11-19T02:25:43;12.80;99.90
24226;DHT22;51462;51.422;5.514;2023-11-19T02:28:12;12.70;99.90
24226;DHT22;51462;51.422;5.514;2023-11-19T02:30:38;12.60;99.90
24226;DHT22;51462;51.422;5.514;2023-11-19T02:33:04;12.50;99.90
24226;DHT22;51462;51.422;5.514;2023-11-19T02:35:32;12.50;99.90
24226;DHT22;51462;51.422;5.514;2023-11-19T02:37:59;12.50;99.90
24226;DHT22;51462;51.422;5.514;2023-11-19T02:40:26;12.70;99.90
24226;DHT22;51462;51.422;5.514;2023-11-19T02:42:52;12.60;99.90
24226;DHT22;51462;51.422;5.514;2023-11-19T02:45:18;12.60;99.90
24226;DHT22;51462;51.422;5.514;2023-11-19T02:47:44;12.50;99.90
24226;DHT22;51462;51.422;5.514;2023-11-19T02:50:13;12.60;99.90
24226;DHT22;51462;51.422;5.514;2023-11-19T02:52:43;12.60;99.90
24226;DHT22;51462;51.422;5.514;2023-11-19T02:55:10;12.50;99.90
24226;DHT22;51462;51.422;5.514;2023-11-19T02:57:39;12.50;99.90
24226;DHT22;51462;51.422;5.514;2023-11-19T03:00:22;12.60;99.90
24226;DHT22;51462;51.422;5.514;2023-11-19T03:02:57;12.50;99.90
24226;DHT22;51462;51.422;5.514;2023-11-19T03:05:43;12.50;99.90
24226;DHT22;51462;51.422;5.514;2023-11-19T03:08:10;12.40;99.90
24226;DHT22;51462;51.422;5.514;2023-11-19T03:10:35;12.40;99.90
24226;DHT22;51462;51.422;5.514;2023-11-19T03:13:02;12.40;99.90
24226;DHT22;51462;51.422;5.514;2023-11-19T03:15:27;12.40;99.90
24226;DHT22;51462;51.422;5.514;2023-11-19T03:17:53;12.30;99.90
24226;DHT22;51462;51.422;5.514;2023-11-19T03:20:19;12.40;99.90
24226;DHT22;51462;51.422;5.514;2023-11-19T03:22:46;12.40;99.90
24226;DHT22;51462;51.422;5.514;2023-11-19T03:25:12;12.40;99.90
24226;DHT22;51462;51.422;5.514;2023-11-19T03:27:38;12.30;99.90
24226;DHT22;51462;51.422;5.514;2023-11-19T03:30:05;12.30;99.90
24226;DHT22;51462;51.422;5.514;2023-11-19T03:32:34;12.30;99.90
24226;DHT22;51462;51.422;5.514;2023-11-19T03:35:02;12.30;99.90
24226;DHT22;51462;51.422;5.514;2023-11-19T03:37:29;12.30;99.90
24226;DHT22;51462;51.422;5.514;2023-11-19T03:39:56;12.30;99.90
24226;DHT22;51462;51.422;5.514;2023-11-19T03:42:25;12.30;99.90
24226;DHT22;51462;51.422;5.514;2023-11-19T03:44:52;12.30;99.90
24226;DHT22;51462;51.422;5.514;2023-11-19T03:47:18;12.20;99.90
24226;DHT22;51462;51.422;5.514;2023-11-19T03:49:50;12.20;99.90
24226;DHT22;51462;51.422;5.514;2023-11-19T03:52:16;12.20;99.90
24226;DHT22;51462;51.422;5.514;2023-11-19T03:54:42;12.10;99.90
24226;DHT22;51462;51.422;5.514;2023-11-19T03:57:07;12.20;99.90
24226;DHT22;51462;51.422;5.514;2023-11-19T03:59:33;12.10;99.90
24226;DHT22;51462;51.422;5.514;2023-11-19T04:01:59;12.20;99.90
24226;DHT22;51462;51.422;5.514;2023-11-19T04:04:26;12.20;99.90
24226;DHT22;51462;51.422;5.514;2023-11-19T04:06:53;12.20;99.90
24226;DHT22;51462;51.422;5.514;2023-11-19T04:09:18;12.20;99.90
24226;DHT22;51462;51.422;5.514;2023-11-19T04:11:44;12.20;99.90
24226;DHT22;51462;51.422;5.514;2023-11-19T04:14:15;12.20;99.90
24226;DHT22;51462;51.422;5.514;2023-11-19T04:16:43;12.20;99.90
24226;DHT22;51462;51.422;5.514;2023-11-19T04:19:09;12.10;99.90
24226;DHT22;51462;51.422;5.514;2023-11-19T04:21:34;12.20;99.90
24226;DHT22;51462;51.422;5.514;2023-11-19T04:24:00;12.20;99.90
24226;DHT22;51462;51.422;5.514;2023-11-19T04:26:26;12.20;99.90
24226;DHT22;51462;51.422;5.514;2023-11-19T04:28:51;12.20;99.90
24226;DHT22;51462;51.422;5.514;2023-11-19T04:31:17;12.20;99.90
24226;DHT22;51462;51.422;5.514;2023-11-19T04:33:43;12.20;99.90
24226;DHT22;51462;51.422;5.514;2023-11-19T04:36:09;12.20;99.90
24226;DHT22;51462;51.422;5.514;2023-11-19T04:38:35;12.20;99.90
24226;DHT22;51462;51.422;5.514;2023-11-19T04:41:01;12.20;99.90
24226;DHT22;51462;51.422;5.514;2023-11-19T04:43:26;12.20;99.90
24226;DHT22;51462;51.422;5.514;2023-11-19T04:45:52;12.20;99.90
24226;DHT22;51462;51.422;5.514;2023-11-19T04:48:17;12.20;99.90
24226;DHT22;51462;51.422;5.514;2023-11-19T04:50:43;12.20;99.90
24226;DHT22;51462;51.422;5.514;2023-11-19T04:53:09;12.10;99.90
24226;DHT22;51462;51.422;5.514;2023-11-19T04:55:34;12.10;99.90
24226;DHT22;51462;51.422;5.514;2023-11-19T04:58:00;12.10;99.90
24226;DHT22;51462;51.422;5.514;2023-11-19T05:00:25;12.10;99.90
24226;DHT22;51462;51.422;5.514;2023-11-19T05:02:51;12.10;99.90
24226;DHT22;51462;51.422;5.514;2023-11-19T05:05:17;12.10;99.90
24226;DHT22;51462;51.422;5.514;2023-11-19T05:07:43;12.20;99.90
24226;DHT22;51462;51.422;5.514;2023-11-19T05:10:08;12.20;99.90
24226;DHT22;51462;51.422;5.514;2023-11-19T05:12:34;12.10;99.90
24226;DHT22;51462;51.422;5.514;2023-11-19T05:15:00;12.10;99.90
24226;DHT22;51462;51.422;5.514;2023-11-19T05:17:26;12.20;99.90
24226;DHT22;51462;51.422;5.514;2023-11-19T05:19:51;12.10;99.90
24226;DHT22;51462;51.422;5.514;2023-11-19T05:22:17;12.00;99.90
24226;DHT22;51462;51.422;5.514;2023-11-19T05:24:42;12.00;99.90
24226;DHT22;51462;51.422;5.514;2023-11-19T05:27:08;12.00;99.90
24226;DHT22;51462;51.422;5.514;2023-11-19T05:29:34;12.00;99.90
24226;DHT22;51462;51.422;5.514;2023-11-19T05:31:59;12.00;99.90
24226;DHT22;51462;51.422;5.514;2023-11-19T05:34:25;11.90;99.90
24226;DHT22;51462;51.422;5.514;2023-11-19T05:36:51;12.00;99.90
24226;DHT22;51462;51.422;5.514;2023-11-19T05:39:17;11.90;99.90
24226;DHT22;51462;51.422;5.514;2023-11-19T05:41:46;11.90;99.90
24226;DHT22;51462;51.422;5.514;2023-11-19T05:44:11;11.90;99.90
24226;DHT22;51462;51.422;5.514;2023-11-19T05:46:37;11.90;99.90
24226;DHT22;51462;51.422;5.514;2023-11-19T05:49:06;11.90;99.90
24226;DHT22;51462;51.422;5.514;2023-11-19T05:51:32;11.80;99.90
24226;DHT22;51462;51.422;5.514;2023-11-19T05:54:01;11.80;99.90
24226;DHT22;51462;51.422;5.514;2023-11-19T05:56:27;11.90;99.90
24226;DHT22;51462;51.422;5.514;2023-11-19T05:58:57;11.80;99.90
24226;DHT22;51462;51.422;5.514;2023-11-19T06:01:23;11.80;99.90
24226;DHT22;51462;51.422;5.514;2023-11-19T06:03:48;11.80;99.90
24226;DHT22;51462;51.422;5.514;2023-11-19T06:06:15;11.80;99.90
24226;DHT22;51462;51.422;5.514;2023-11-19T06:08:41;11.80;99.90
24226;DHT22;51462;51.422;5.514;2023-11-19T06:11:07;11.70;99.90
24226;DHT22;51462;51.422;5.514;2023-11-19T06:13:32;11.70;99.90
24226;DHT22;51462;51.422;5.514;2023-11-19T06:15:58;11.70;99.90
24226;DHT22;51462;51.422;5.514;2023-11-19T06:18:24;11.70;99.90
24226;DHT22;51462;51.422;5.514;2023-11-19T06:20:50;11.70;99.90
24226;DHT22;51462;51.422;5.514;2023-11-19T06:23:15;11.60;99.90
24226;DHT22;51462;51.422;5.514;2023-11-19T06:25:41;11.60;99.90
24226;DHT22;51462;51.422;5.514;2023-11-19T06:28:07;11.60;99.90
24226;DHT22;51462;51.422;5.514;2023-11-19T06:30:33;11.60;99.90
24226;DHT22;51462;51.422;5.514;2023-11-19T06:32:58;11.60;99.90
24226;DHT22;51462;51.422;5.514;2023-11-19T06:35:24;11.50;99.90
24226;DHT22;51462;51.422;5.514;2023-11-19T06:37:50;11.50;99.90
24226;DHT22;51462;51.422;5.514;2023-11-19T06:40:16;11.50;99.90
24226;DHT22;51462;51.422;5.514;2023-11-19T06:42:42;11.40;99.90
24226;DHT22;51462;51.422;5.514;2023-11-19T06:45:07;11.40;99.90
24226;DHT22;51462;51.422;5.514;2023-11-19T06:47:33;11.40;99.90
24226;DHT22;51462;51.422;5.514;2023-11-19T06:49:58;11.50;99.90
24226;DHT22;51462;51.422;5.514;2023-11-19T06:52:24;11.50;99.90
24226;DHT22;51462;51.422;5.514;2023-11-19T06:54:50;11.40;99.90
24226;DHT22;51462;51.422;5.514;2023-11-19T06:57:16;11.40;99.90
24226;DHT22;51462;51.422;5.514;2023-11-19T06:59:42;11.40;99.90
24226;DHT22;51462;51.422;5.514;2023-11-19T07:02:07;11.40;99.90
24226;DHT22;51462;51.422;5.514;2023-11-19T07:04:34;11.30;99.90
24226;DHT22;51462;51.422;5.514;2023-11-19T07:06:59;11.30;99.90
24226;DHT22;51462;51.422;5.514;2023-11-19T07:09:25;11.30;99.90
24226;DHT22;51462;51.422;5.514;2023-11-19T07:11:51;11.40;99.90
24226;DHT22;51462;51.422;5.514;2023-11-19T07:14:18;11.40;99.90
24226;DHT22;51462;51.422;5.514;2023-11-19T07:16:44;11.30;99.90
24226;DHT22;51462;51.422;5.514;2023-11-19T07:19:09;11.40;99.90
24226;DHT22;51462;51.422;5.514;2023-11-19T07:21:35;11.30;99.90
24226;DHT22;51462;51.422;5.514;2023-11-19T07:24:05;11.30;99.90
24226;DHT22;51462;51.422;5.514;2023-11-19T07:26:30;11.30;99.90
24226;DHT22;51462;51.422;5.514;2023-11-19T07:28:56;11.40;99.90
24226;DHT22;51462;51.422;5.514;2023-11-19T07:31:23;11.30;99.90
24226;DHT22;51462;51.422;5.514;2023-11-19T07:33:49;11.40;99.90
24226;DHT22;51462;51.422;5.514;2023-11-19T07:36:14;11.40;99.90
24226;DHT22;51462;51.422;5.514;2023-11-19T07:38:40;11.40;99.90
24226;DHT22;51462;51.422;5.514;2023-11-19T07:41:06;11.40;99.90
24226;DHT22;51462;51.422;5.514;2023-11-19T07:43:32;11.40;99.90
24226;DHT22;51462;51.422;5.514;2023-11-19T07:45:58;11.40;99.90
24226;DHT22;51462;51.422;5.514;2023-11-19T07:48:27;11.50;99.90
24226;DHT22;51462;51.422;5.514;2023-11-19T07:50:53;11.40;99.90
24226;DHT22;51462;51.422;5.514;2023-11-19T07:53:19;11.40;99.90
24226;DHT22;51462;51.422;5.514;2023-11-19T07:55:45;11.40;99.90
24226;DHT22;51462;51.422;5.514;2023-11-19T07:58:12;11.40;99.90
24226;DHT22;51462;51.422;5.514;2023-11-19T08:00:38;11.40;99.90
24226;DHT22;51462;51.422;5.514;2023-11-19T08:03:04;11.40;99.90
24226;DHT22;51462;51.422;5.514;2023-11-19T08:05:32;11.40;99.90
24226;DHT22;51462;51.422;5.514;2023-11-19T08:07:58;11.50;99.90
24226;DHT22;51462;51.422;5.514;2023-11-19T08:10:23;11.50;99.90
24226;DHT22;51462;51.422;5.514;2023-11-19T08:12:49;11.50;99.90
24226;DHT22;51462;51.422;5.514;2023-11-19T08:15:15;11.50;99.90
24226;DHT22;51462;51.422;5.514;2023-11-19T08:17:41;11.50;99.90
24226;DHT22;51462;51.422;5.514;2023-11-19T08:20:08;11.50;99.90
24226;DHT22;51462;51.422;5.514;2023-11-19T08:22:37;11.40;99.90
24226;DHT22;51462;51.422;5.514;2023-11-19T08:25:06;11.50;99.90
24226;DHT22;51462;51.422;5.514;2023-11-19T08:27:32;11.50;99.90
24226;DHT22;51462;51.422;5.514;2023-11-19T08:29:58;11.60;99.90
24226;DHT22;51462;51.422;5.514;2023-11-19T08:32:27;11.60;99.90
24226;DHT22;51462;51.422;5.514;2023-11-19T08:34:53;11.60;99.90
24226;DHT22;51462;51.422;5.514;2023-11-19T08:37:19;11.60;99.90
24226;DHT22;51462;51.422;5.514;2023-11-19T08:39:47;11.60;99.90
24226;DHT22;51462;51.422;5.514;2023-11-19T08:42:13;11.60;99.90
24226;DHT22;51462;51.422;5.514;2023-11-19T08:44:38;11.70;99.90
24226;DHT22;51462;51.422;5.514;2023-11-19T08:47:04;11.70;99.90
24226;DHT22;51462;51.422;5.514;2023-11-19T08:49:30;11.70;99.90
24226;DHT22;51462;51.422;5.514;2023-11-19T08:51:55;11.70;99.90
24226;DHT22;51462;51.422;5.514;2023-11-19T08:54:21;11.70;99.90
24226;DHT22;51462;51.422;5.514;2023-11-19T08:56:48;11.70;99.90
24226;DHT22;51462;51.422;5.514;2023-11-19T08:59:14;11.70;99.90
24226;DHT22;51462;51.422;5.514;2023-11-19T09:01:40;11.80;99.90
24226;DHT22;51462;51.422;5.514;2023-11-19T09:04:06;11.80;99.90
24226;DHT22;51462;51.422;5.514;2023-11-19T09:06:32;11.80;99.90
24226;DHT22;51462;51.422;5.514;2023-11-19T09:08:57;11.90;99.90
24226;DHT22;51462;51.422;5.514;2023-11-19T09:11:27;11.90;99.90
24226;DHT22;51462;51.422;5.514;2023-11-19T09:13:52;11.90;99.90
24226;DHT22;51462;51.422;5.514;2023-11-19T09:16:18;12.00;99.90
24226;DHT22;51462;51.422;5.514;2023-11-19T09:18:44;12.00;99.90
24226;DHT22;51462;51.422;5.514;2023-11-19T09:21:11;12.10;99.90
24226;DHT22;51462;51.422;5.514;2023-11-19T09:23:36;12.20;99.90
24226;DHT22;51462;51.422;5.514;2023-11-19T09:26:05;12.20;99.90
24226;DHT22;51462;51.422;5.514;2023-11-19T09:28:31;12.20;99.90
24226;DHT22;51462;51.422;5.514;2023-11-19T09:30:57;12.20;99.90
24226;DHT22;51462;51.422;5.514;2023-11-19T09:33:23;12.20;99.90
24226;DHT22;51462;51.422;5.514;2023-11-19T09:35:48;12.20;99.90
24226;DHT22;51462;51.422;5.514;2023-11-19T09:38:15;12.20;99.90
24226;DHT22;51462;51.422;5.514;2023-11-19T09:40:40;12.30;99.90
24226;DHT22;51462;51.422;5.514;2023-11-19T09:43:07;12.30;99.90
24226;DHT22;51462;51.422;5.514;2023-11-19T09:45:48;12.30;99.90
24226;DHT22;51462;51.422;5.514;2023-11-19T09:48:16;12.40;99.90
24226;DHT22;51462;51.422;5.514;2023-11-19T09:50:43;12.40;99.90
24226;DHT22;51462;51.422;5.514;2023-11-19T09:53:09;12.40;99.90
24226;DHT22;51462;51.422;5.514;2023-11-19T09:55:35;12.40;99.90
24226;DHT22;51462;51.422;5.514;2023-11-19T09:58:01;12.40;99.90
24226;DHT22;51462;51.422;5.514;2023-11-19T10:00:27;12.50;99.90
24226;DHT22;51462;51.422;5.514;2023-11-19T10:02:54;12.60;99.90
24226;DHT22;51462;51.422;5.514;2023-11-19T10:05:20;12.60;99.90
24226;DHT22;51462;51.422;5.514;2023-11-19T10:07:46;12.50;99.90
24226;DHT22;51462;51.422;5.514;2023-11-19T10:10:12;12.60;99.90
24226;DHT22;51462;51.422;5.514;2023-11-19T10:12:44;12.60;99.90
24226;DHT22;51462;51.422;5.514;2023-11-19T10:15:23;12.70;99.90
24226;DHT22;51462;51.422;5.514;2023-11-19T10:17:50;12.80;99.90
24226;DHT22;51462;51.422;5.514;2023-11-19T10:20:16;12.80;99.90
24226;DHT22;51462;51.422;5.514;2023-11-19T10:22:41;12.80;99.90
24226;DHT22;51462;51.422;5.514;2023-11-19T10:25:25;12.80;99.90
24226;DHT22;51462;51.422;5.514;2023-11-19T10:27:52;12.90;99.90
24226;DHT22;51462;51.422;5.514;2023-11-19T10:30:25;13.00;99.90
24226;DHT22;51462;51.422;5.514;2023-11-19T10:35:50;13.20;99.90
24226;DHT22;51462;51.422;5.514;2023-11-19T10:38:19;13.10;99.90
24226;DHT22;51462;51.422;5.514;2023-11-19T10:40:46;13.10;99.90
24226;DHT22;51462;51.422;5.514;2023-11-19T10:43:12;13.20;99.90
24226;DHT22;51462;51.422;5.514;2023-11-19T10:45:38;13.20;99.90
24226;DHT22;51462;51.422;5.514;2023-11-19T10:48:05;13.30;99.90
24226;DHT22;51462;51.422;5.514;2023-11-19T10:50:34;13.30;99.90
24226;DHT22;51462;51.422;5.514;2023-11-19T10:53:00;13.30;99.90
24226;DHT22;51462;51.422;5.514;2023-11-19T10:55:31;13.40;99.90
24226;DHT22;51462;51.422;5.514;2023-11-19T10:58:01;13.50;99.90
24226;DHT22;51462;51.422;5.514;2023-11-19T11:00:29;13.60;99.90
24226;DHT22;51462;51.422;5.514;2023-11-19T11:03:02;13.70;99.90
24226;DHT22;51462;51.422;5.514;2023-11-19T11:05:32;13.60;99.90
24226;DHT22;51462;51.422;5.514;2023-11-19T11:08:01;13.50;99.90
24226;DHT22;51462;51.422;5.514;2023-11-19T11:10:28;13.50;99.90
24226;DHT22;51462;51.422;5.514;2023-11-19T11:12:59;13.50;99.90
24226;DHT22;51462;51.422;5.514;2023-11-19T11:15:27;13.40;99.90
24226;DHT22;51462;51.422;5.514;2023-11-19T11:17:59;13.30;99.90
24226;DHT22;51462;51.422;5.514;2023-11-19T11:20:28;13.20;99.90
24226;DHT22;51462;51.422;5.514;2023-11-19T11:29:26;13.10;99.90
24226;DHT22;51462;51.422;5.514;2023-11-19T11:31:56;13.10;99.90
24226;DHT22;51462;51.422;5.514;2023-11-19T11:35:16;13.10;99.90
24226;DHT22;51462;51.422;5.514;2023-11-19T11:37:49;12.90;99.90
24226;DHT22;51462;51.422;5.514;2023-11-19T11:40:17;12.90;99.90
24226;DHT22;51462;51.422;5.514;2023-11-19T11:42:44;12.70;99.90
24226;DHT22;51462;51.422;5.514;2023-11-19T11:45:12;12.60;99.90
24226;DHT22;51462;51.422;5.514;2023-11-19T11:50:19;12.50;99.90
24226;DHT22;51462;51.422;5.514;2023-11-19T11:58:08;12.50;99.90
24226;DHT22;51462;51.422;5.514;2023-11-19T12:00:39;12.50;99.90
24226;DHT22;51462;51.422;5.514;2023-11-19T12:03:06;12.60;99.90
24226;DHT22;51462;51.422;5.514;2023-11-19T12:05:45;12.80;99.90
24226;DHT22;51462;51.422;5.514;2023-11-19T12:08:17;12.90;99.90
24226;DHT22;51462;51.422;5.514;2023-11-19T12:10:50;13.10;99.90
24226;DHT22;51462;51.422;5.514;2023-11-19T12:13:16;13.20;99.90
24226;DHT22;51462;51.422;5.514;2023-11-19T12:18:24;13.30;99.90
24226;DHT22;51462;51.422;5.514;2023-11-19T12:20:51;13.20;99.90
24226;DHT22;51462;51.422;5.514;2023-11-19T12:23:17;13.20;99.90
24226;DHT22;51462;51.422;5.514;2023-11-19T12:25:43;13.10;99.90
24226;DHT22;51462;51.422;5.514;2023-11-19T12:28:16;13.10;99.90
24226;DHT22;51462;51.422;5.514;2023-11-19T12:30:45;13.10;99.90
24226;DHT22;51462;51.422;5.514;2023-11-19T12:33:13;13.10;99.90
24226;DHT22;51462;51.422;5.514;2023-11-19T12:35:45;13.00;99.90
24226;DHT22;51462;51.422;5.514;2023-11-19T12:38:22;13.00;99.90
24226;DHT22;51462;51.422;5.514;2023-11-19T12:41:05;13.00;99.90
24226;DHT22;51462;51.422;5.514;2023-11-19T12:43:31;13.00;99.90
24226;DHT22;51462;51.422;5.514;2023-11-19T12:45:57;13.00;99.90
24226;DHT22;51462;51.422;5.514;2023-11-19T12:48:23;13.00;99.90
24226;DHT22;51462;51.422;5.514;2023-11-19T12:50:57;13.00;99.90
24226;DHT22;51462;51.422;5.514;2023-11-19T12:53:24;13.00;99.90
24226;DHT22;51462;51.422;5.514;2023-11-19T12:55:50;13.00;99.90
24226;DHT22;51462;51.422;5.514;2023-11-19T13:01:02;13.00;99.90
24226;DHT22;51462;51.422;5.514;2023-11-19T13:03:47;13.10;99.90
24226;DHT22;51462;51.422;5.514;2023-11-19T13:06:15;13.00;99.90
24226;DHT22;51462;51.422;5.514;2023-11-19T13:11:12;12.80;99.90
24226;DHT22;51462;51.422;5.514;2023-11-19T13:13:58;12.80;99.90
24226;DHT22;51462;51.422;5.514;2023-11-19T13:16:25;12.70;99.90
24226;DHT22;51462;51.422;5.514;2023-11-19T13:18:51;12.70;99.90
24226;DHT22;51462;51.422;5.514;2023-11-19T13:21:17;12.60;99.90
24226;DHT22;51462;51.422;5.514;2023-11-19T13:23:43;12.50;99.90
24226;DHT22;51462;51.422;5.514;2023-11-19T13:26:09;12.60;99.90
24226;DHT22;51462;51.422;5.514;2023-11-19T13:28:36;12.60;99.90
24226;DHT22;51462;51.422;5.514;2023-11-19T13:31:01;12.70;99.90
24226;DHT22;51462;51.422;5.514;2023-11-19T13:33:28;12.80;99.90
24226;DHT22;51462;51.422;5.514;2023-11-19T13:35:55;12.80;99.90
24226;DHT22;51462;51.422;5.514;2023-11-19T13:38:20;12.80;99.90
24226;DHT22;51462;51.422;5.514;2023-11-19T13:40:46;12.80;99.90
24226;DHT22;51462;51.422;5.514;2023-11-19T13:43:11;12.80;99.90
24226;DHT22;51462;51.422;5.514;2023-11-19T13:45:37;12.80;99.90
24226;DHT22;51462;51.422;5.514;2023-11-19T13:48:02;12.80;99.90
24226;DHT22;51462;51.422;5.514;2023-11-19T13:50:28;12.80;99.90
24226;DHT22;51462;51.422;5.514;2023-11-19T13:52:54;12.80;99.90
24226;DHT22;51462;51.422;5.514;2023-11-19T13:55:20;12.70;99.90
24226;DHT22;51462;51.422;5.514;2023-11-19T13:57:46;12.80;99.90
24226;DHT22;51462;51.422;5.514;2023-11-19T14:00:12;12.80;99.90
24226;DHT22;51462;51.422;5.514;2023-11-19T14:02:41;12.80;99.90
24226;DHT22;51462;51.422;5.514;2023-11-19T14:05:07;12.80;99.90
24226;DHT22;51462;51.422;5.514;2023-11-19T14:07:32;12.80;99.90
24226;DHT22;51462;51.422;5.514;2023-11-19T14:09:59;12.70;99.90
24226;DHT22;51462;51.422;5.514;2023-11-19T14:12:24;12.70;99.90
24226;DHT22;51462;51.422;5.514;2023-11-19T14:14:50;12.70;99.90
24226;DHT22;51462;51.422;5.514;2023-11-19T14:17:16;12.70;99.90
24226;DHT22;51462;51.422;5.514;2023-11-19T14:19:42;12.60;99.90
24226;DHT22;51462;51.422;5.514;2023-11-19T14:22:08;12.60;99.90
24226;DHT22;51462;51.422;5.514;2023-11-19T14:24:34;12.50;99.90
24226;DHT22;51462;51.422;5.514;2023-11-19T14:27:00;12.40;99.90
24226;DHT22;51462;51.422;5.514;2023-11-19T14:29:26;12.40;99.90
24226;DHT22;51462;51.422;5.514;2023-11-19T14:31:53;12.30;99.90
24226;DHT22;51462;51.422;5.514;2023-11-19T14:34:20;12.30;99.90
24226;DHT22;51462;51.422;5.514;2023-11-19T14:36:45;12.30;99.90
24226;DHT22;51462;51.422;5.514;2023-11-19T14:39:11;12.20;99.90
24226;DHT22;51462;51.422;5.514;2023-11-19T14:41:36;12.20;99.90
24226;DHT22;51462;51.422;5.514;2023-11-19T14:44:02;12.30;99.90
24226;DHT22;51462;51.422;5.514;2023-11-19T14:46:29;12.30;99.90
24226;DHT22;51462;51.422;5.514;2023-11-19T14:48:54;12.20;99.90
24226;DHT22;51462;51.422;5.514;2023-11-19T14:51:20;12.20;99.90
24226;DHT22;51462;51.422;5.514;2023-11-19T14:53:46;12.20;99.90
24226;DHT22;51462;51.422;5.514;2023-11-19T14:56:12;12.10;99.90
24226;DHT22;51462;51.422;5.514;2023-11-19T14:58:38;12.20;99.90
24226;DHT22;51462;51.422;5.514;2023-11-19T15:01:05;12.10;99.90
24226;DHT22;51462;51.422;5.514;2023-11-19T15:03:30;12.10;99.90
24226;DHT22;51462;51.422;5.514;2023-11-19T15:05:56;12.10;99.90
24226;DHT22;51462;51.422;5.514;2023-11-19T15:08:22;12.10;99.90
24226;DHT22;51462;51.422;5.514;2023-11-19T15:10:47;12.10;99.90
24226;DHT22;51462;51.422;5.514;2023-11-19T15:13:13;12.10;99.90
24226;DHT22;51462;51.422;5.514;2023-11-19T15:15:39;12.10;99.90
24226;DHT22;51462;51.422;5.514;2023-11-19T15:18:05;12.00;99.90
24226;DHT22;51462;51.422;5.514;2023-11-19T15:20:30;11.90;99.90
24226;DHT22;51462;51.422;5.514;2023-11-19T15:22:57;11.90;99.90
24226;DHT22;51462;51.422;5.514;2023-11-19T15:25:23;11.90;99.90
24226;DHT22;51462;51.422;5.514;2023-11-19T15:27:49;11.90;99.90
24226;DHT22;51462;51.422;5.514;2023-11-19T15:30:15;11.90;99.90
24226;DHT22;51462;51.422;5.514;2023-11-19T15:32:41;12.00;99.90
24226;DHT22;51462;51.422;5.514;2023-11-19T15:35:08;12.00;99.90
24226;DHT22;51462;51.422;5.514;2023-11-19T15:37:34;12.00;99.90
24226;DHT22;51462;51.422;5.514;2023-11-19T15:40:00;12.00;99.90
24226;DHT22;51462;51.422;5.514;2023-11-19T15:42:26;12.00;99.90
24226;DHT22;51462;51.422;5.514;2023-11-19T15:44:51;11.90;99.90
24226;DHT22;51462;51.422;5.514;2023-11-19T15:47:17;11.80;99.90
24226;DHT22;51462;51.422;5.514;2023-11-19T15:49:42;11.80;99.90
24226;DHT22;51462;51.422;5.514;2023-11-19T15:52:08;11.80;99.90
24226;DHT22;51462;51.422;5.514;2023-11-19T15:54:34;11.90;99.90